Time;durP1;ratioP1;P1;durP2;ratioP2;P2;SDS_P1;SDS_P2;PMS_P1;PMS_P2;Temp;Humidity;BMP_temperature;BMP_pressure;BME280_temperature;BME280_humidity;BME280_pressure;Samples;Min_cycle;Max_cycle;Signal;HPM_P1;HPM_P2
2021/05/27 00:00:03;;;;;;;3.10;2.90;;;7.90;99.90;;;;;;5050345;28;20457;-84
2021/05/27 00:02:38;;;;;;;2.90;2.70;;;7.90;99.90;;;;;;5054785;28;20462;-83
2021/05/27 00:05:14;;;;;;;5.27;2.97;;;7.80;99.90;;;;;;5053704;28;20501;-84
2021/05/27 00:07:57;;;;;;;3.20;2.90;;;7.80;99.90;;;;;;5054093;28;20513;-84
2021/05/27 00:10:37;;;;;;;3.33;2.87;;;7.80;99.90;;;;;;5051520;28;20475;-84
2021/05/27 00:13:18;;;;;;;3.70;3.00;;;7.70;99.90;;;;;;5058288;28;21026;-84
2021/05/27 00:15:54;;;;;;;2.83;2.63;;;7.70;99.90;;;;;;5048874;28;20496;-84
2021/05/27 00:18:29;;;;;;;4.40;3.03;;;7.70;99.90;;;;;;5055249;28;20474;-84
2021/05/27 00:21:03;;;;;;;3.63;3.33;;;7.60;99.90;;;;;;5053853;28;20944;-83
2021/05/27 00:23:38;;;;;;;4.27;3.40;;;7.50;99.90;;;;;;5059295;28;20481;-83
2021/05/27 00:26:11;;;;;;;5.00;3.70;;;7.50;99.90;;;;;;5057904;28;20516;-83
2021/05/27 00:28:51;;;;;;;4.13;3.80;;;7.50;99.90;;;;;;5052769;28;20480;-84
2021/05/27 00:31:31;;;;;;;4.73;3.30;;;7.60;99.90;;;;;;5051679;28;20932;-84
2021/05/27 00:34:08;;;;;;;3.83;3.50;;;7.50;99.90;;;;;;5052083;28;20538;-84
2021/05/27 00:36:43;;;;;;;3.93;2.90;;;7.40;99.90;;;;;;5049416;28;20811;-84
2021/05/27 00:39:23;;;;;;;3.73;3.50;;;7.40;99.90;;;;;;5051175;28;20482;-84
2021/05/27 00:41:58;;;;;;;3.50;3.20;;;7.40;99.90;;;;;;5052985;28;20462;-84
2021/05/27 00:44:35;;;;;;;4.20;3.90;;;7.30;99.90;;;;;;5055673;28;20440;-84
2021/05/27 00:47:13;;;;;;;4.27;3.87;;;7.30;99.90;;;;;;5048281;28;20461;-84
2021/05/27 00:49:53;;;;;;;4.17;3.87;;;7.30;99.90;;;;;;5057828;28;20569;-83
2021/05/27 00:52:28;;;;;;;4.47;3.60;;;7.40;99.90;;;;;;5053866;28;20459;-83
2021/05/27 00:55:17;;;;;;;4.37;3.60;;;7.30;99.90;;;;;;5058418;28;20439;-83
2021/05/27 00:57:54;;;;;;;4.40;4.10;;;7.30;99.90;;;;;;5053479;28;20498;-84
2021/05/27 01:00:40;;;;;;;4.20;3.80;;;7.40;99.90;;;;;;5055329;28;20448;-83
2021/05/27 01:03:14;;;;;;;4.67;3.77;;;7.30;99.90;;;;;;5056973;28;20539;-84
2021/05/27 01:05:50;;;;;;;6.27;4.20;;;7.30;99.90;;;;;;5058602;28;20547;-84
2021/05/27 01:08:31;;;;;;;3.87;3.47;;;7.20;99.90;;;;;;5056923;28;20531;-84
2021/05/27 01:11:08;;;;;;;6.50;3.60;;;7.20;99.90;;;;;;5058902;28;20511;-84
2021/05/27 01:13:43;;;;;;;4.80;3.87;;;7.20;99.90;;;;;;5055016;28;20471;-84
2021/05/27 01:16:26;;;;;;;5.13;3.93;;;7.20;99.90;;;;;;5061698;28;20501;-84
2021/05/27 01:19:01;;;;;;;5.10;4.60;;;7.10;99.90;;;;;;5055369;28;21038;-85
2021/05/27 01:21:37;;;;;;;5.70;4.37;;;7.10;99.90;;;;;;5055713;28;20454;-84
2021/05/27 01:24:13;;;;;;;5.27;3.97;;;7.10;99.90;;;;;;5056131;28;20464;-84
2021/05/27 01:26:48;;;;;;;5.23;3.90;;;7.10;99.90;;;;;;5060345;28;20456;-84
2021/05/27 01:29:23;;;;;;;4.10;3.70;;;7.00;99.90;;;;;;5054641;28;20451;-84
2021/05/27 01:32:00;;;;;;;4.73;4.30;;;7.00;99.90;;;;;;5054130;28;20455;-84
2021/05/27 01:34:35;;;;;;;3.87;3.53;;;7.00;99.90;;;;;;5052537;28;20477;-84
2021/05/27 01:37:10;;;;;;;4.47;4.07;;;7.00;99.90;;;;;;5047323;28;20849;-84
2021/05/27 01:40:01;;;;;;;4.97;4.13;;;6.80;99.90;;;;;;5048010;28;20468;-84
2021/05/27 01:42:38;;;;;;;4.63;4.10;;;6.90;99.90;;;;;;5055973;28;20460;-84
2021/05/27 01:45:14;;;;;;;10.63;5.40;;;6.90;99.90;;;;;;5058431;28;20465;-84
2021/05/27 01:47:54;;;;;;;4.90;4.40;;;6.70;99.90;;;;;;5053895;28;21089;-84
2021/05/27 01:50:30;;;;;;;5.10;4.60;;;6.80;99.90;;;;;;5055020;28;20487;-84
2021/05/27 01:53:15;;;;;;;6.53;5.03;;;6.80;99.90;;;;;;5050718;28;20466;-84
2021/05/27 01:55:59;;;;;;;5.30;4.80;;;6.80;99.90;;;;;;5085155;28;20484;-84
2021/05/27 01:58:34;;;;;;;5.63;5.07;;;6.80;99.90;;;;;;5048744;28;20472;-84
2021/05/27 02:01:08;;;;;;;6.47;5.00;;;6.80;99.90;;;;;;5052051;28;20472;-84
2021/05/27 02:03:43;;;;;;;7.60;4.97;;;6.80;99.90;;;;;;5054261;28;20456;-84
2021/05/27 02:06:15;;;;;;;5.23;4.80;;;6.70;99.90;;;;;;5058430;28;20483;-83
2021/05/27 02:11:45;;;;;;;6.23;5.30;;;6.80;99.90;;;;;;5055898;28;20460;-84
2021/05/27 02:14:20;;;;;;;6.23;5.63;;;6.80;99.90;;;;;;5050240;28;20464;-84
2021/05/27 02:17:00;;;;;;;8.17;5.90;;;6.60;99.90;;;;;;5059675;28;20468;-84
2021/05/27 02:19:35;;;;;;;6.17;5.67;;;6.60;99.90;;;;;;5068927;28;20475;-84
2021/05/27 02:22:15;;;;;;;6.17;5.63;;;6.60;99.90;;;;;;5079205;28;20452;-84
2021/05/27 02:24:50;;;;;;;6.87;6.27;;;6.60;99.90;;;;;;5075807;28;20441;-84
2021/05/27 02:27:31;;;;;;;6.63;6.00;;;6.70;99.90;;;;;;5069361;28;20444;-82
2021/05/27 02:30:06;;;;;;;7.03;6.37;;;6.70;99.90;;;;;;5072449;28;20433;-83
2021/05/27 02:32:41;;;;;;;7.80;7.00;;;6.60;99.90;;;;;;5070545;28;20472;-83
2021/05/27 02:35:16;;;;;;;9.30;6.67;;;6.70;99.90;;;;;;5072355;28;20522;-83
2021/05/27 02:37:50;;;;;;;7.23;6.23;;;6.80;99.90;;;;;;5068630;28;20585;-82
2021/05/27 02:40:25;;;;;;;12.23;6.83;;;6.60;99.90;;;;;;5060183;28;20461;-83
2021/05/27 02:43:01;;;;;;;8.40;6.50;;;6.60;99.90;;;;;;5063967;28;20481;-82
2021/05/27 02:45:41;;;;;;;7.30;6.60;;;6.60;99.90;;;;;;5067142;28;20543;-83
2021/05/27 02:48:17;;;;;;;9.00;6.93;;;6.60;99.90;;;;;;5066183;28;20490;-82
2021/05/27 02:50:57;;;;;;;7.17;6.30;;;6.60;99.90;;;;;;5059787;28;20539;-83
2021/05/27 02:53:40;;;;;;;7.33;6.63;;;6.50;99.90;;;;;;5054642;28;20497;-83
2021/05/27 02:56:15;;;;;;;9.37;7.40;;;6.60;99.90;;;;;;5063780;28;20478;-83
2021/05/27 02:58:56;;;;;;;8.10;7.33;;;6.60;99.90;;;;;;5058600;28;20838;-83
2021/05/27 03:01:32;;;;;;;8.00;7.07;;;6.50;99.90;;;;;;5060289;28;20597;-82
2021/05/27 03:04:07;;;;;;;8.20;6.70;;;6.60;99.90;;;;;;5060108;28;20861;-82
2021/05/27 03:06:50;;;;;;;8.47;7.67;;;6.60;99.90;;;;;;5057933;28;20459;-82
2021/05/27 03:09:26;;;;;;;8.80;8.03;;;6.50;99.90;;;;;;5056777;28;20531;-84
2021/05/27 03:12:00;;;;;;;10.30;7.50;;;6.50;99.90;;;;;;5054341;28;20492;-84
2021/05/27 03:14:39;;;;;;;8.80;7.30;;;6.60;99.90;;;;;;5056647;28;20476;-83
2021/05/27 03:17:14;;;;;;;9.40;8.20;;;6.60;99.90;;;;;;5058815;28;20474;-82
2021/05/27 03:19:49;;;;;;;9.90;8.17;;;6.50;99.90;;;;;;5051068;28;20447;-82
2021/05/27 03:22:27;;;;;;;8.30;7.60;;;6.60;99.90;;;;;;5053072;28;20978;-83
2021/05/27 03:25:02;;;;;;;8.57;7.67;;;6.60;99.90;;;;;;5059080;28;20450;-82
2021/05/27 03:27:37;;;;;;;8.90;8.00;;;6.60;99.90;;;;;;5055516;28;20580;-83
2021/05/27 03:30:16;;;;;;;10.27;8.07;;;6.70;99.90;;;;;;5052940;28;20541;-82
2021/05/27 03:32:51;;;;;;;11.67;7.60;;;6.70;99.90;;;;;;5052844;28;20487;-82
2021/05/27 03:35:27;;;;;;;9.30;8.20;;;6.70;99.90;;;;;;5059727;28;20546;-84
2021/05/27 03:38:04;;;;;;;13.13;8.23;;;6.80;99.90;;;;;;5053158;28;20476;-83
2021/05/27 03:40:39;;;;;;;8.93;7.93;;;6.80;99.90;;;;;;5060563;28;20777;-82
2021/05/27 03:43:14;;;;;;;9.03;8.23;;;6.90;99.90;;;;;;5060883;28;20458;-83
2021/05/27 03:45:50;;;;;;;11.40;9.47;;;7.20;99.90;;;;;;5056968;28;20475;-83
2021/05/27 03:48:25;;;;;;;9.40;7.87;;;7.20;99.90;;;;;;5067791;28;20459;-83
2021/05/27 03:50:59;;;;;;;9.17;8.30;;;7.20;99.90;;;;;;5059486;28;20479;-83
2021/05/27 03:53:34;;;;;;;9.53;8.57;;;7.30;99.90;;;;;;5054113;28;20464;-83
2021/05/27 03:56:09;;;;;;;9.30;8.40;;;7.30;99.90;;;;;;5059441;28;20491;-82
2021/05/27 04:01:35;;;;;;;8.20;7.50;;;7.40;99.90;;;;;;5060548;28;20497;-83
2021/05/27 04:07:16;;;;;;;8.20;7.60;;;;;;;;;;5051750;28;20446;-83
2021/05/27 04:09:48;;;;;;;7.47;6.87;;;;;;;;;;5051493;28;20444;-84
2021/05/27 04:15:25;;;;;;;6.70;6.10;;;;;;;;;;5060130;28;20467;-82
2021/05/27 04:17:59;;;;;;;6.47;5.97;;;;;;;;;;5059277;28;20467;-83
2021/05/27 04:20:38;;;;;;;6.70;4.80;;;;;;;;;;5056078;28;20452;-84
2021/05/27 04:23:32;;;;;;;5.43;4.80;;;;;;;;;;5062568;28;20518;-83
2021/05/27 04:26:05;;;;;;;5.00;4.60;;;;;;;;;;5059549;28;20484;-85
2021/05/27 04:28:38;;;;;;;5.60;5.10;;;;;;;;;;5061976;28;20582;-84
2021/05/27 04:31:15;;;;;;;5.70;5.20;;;;;;;;;;5055469;28;20928;-84
2021/05/27 04:33:56;;;;;;;6.40;5.80;;;;;;;;;;5062516;28;20543;-82
2021/05/27 04:36:29;;;;;;;6.70;6.10;;;;;;;;;;5059681;28;20477;-84
2021/05/27 04:39:01;;;;;;;6.40;5.73;;;;;;;;;;5060628;28;20478;-84
2021/05/27 04:41:36;;;;;;;6.93;6.33;;;;;;;;;;5060501;28;20794;-84
2021/05/27 04:44:09;;;;;;;6.50;6.00;;;;;;;;;;5065037;28;20475;-84
2021/05/27 04:46:49;;;;;;;6.30;5.80;;;;;;;;;;5056319;28;20576;-84
2021/05/27 04:49:27;;;;;;;5.93;5.33;;;;;;;;;;5060349;28;20445;-85
2021/05/27 04:52:00;;;;;;;5.27;4.50;;;;;;;;;;5061111;28;20480;-82
2021/05/27 04:54:32;;;;;;;5.00;4.60;;;;;;;;;;5058368;28;20475;-83
2021/05/27 04:57:04;;;;;;;5.50;4.40;;;;;;;;;;5060286;28;20490;-84
2021/05/27 04:59:36;;;;;;;4.83;4.50;;;;;;;;;;5062529;28;20433;-83
2021/05/27 05:02:08;;;;;;;5.40;5.00;;;;;;;;;;5063249;28;20472;-84
2021/05/27 05:04:42;;;;;;;5.50;5.00;;;;;;;;;;5062658;28;20442;-83
2021/05/27 05:07:14;;;;;;;5.43;5.03;;;;;;;;;;5060525;28;20453;-85
2021/05/27 05:09:47;;;;;;;5.83;5.33;;;;;;;;;;5061246;28;20533;-83
2021/05/27 05:12:22;;;;;;;5.57;5.17;;;;;;;;;;5055876;28;20468;-83
2021/05/27 05:14:54;;;;;;;5.70;5.20;;;;;;;;;;5056290;28;20475;-84
2021/05/27 05:17:28;;;;;;;7.17;5.07;;;;;;;;;;5061100;28;20473;-84
2021/05/27 05:20:01;;;;;;;5.80;5.30;;;;;;;;;;5060974;28;20482;-85
2021/05/27 05:22:34;;;;;;;5.40;4.90;;;;;;;;;;5058013;28;20468;-84
2021/05/27 05:25:07;;;;;;;6.00;5.60;;;;;;;;;;5063254;28;20449;-85
2021/05/27 05:27:39;;;;;;;6.37;5.87;;;;;;;;;;5067013;28;20452;-85
2021/05/27 05:30:12;;;;;;;5.97;5.43;;;;;;;;;;5066559;28;20447;-83
2021/05/27 05:32:45;;;;;;;21.20;6.50;;;;;;;;;;5066007;28;20454;-83
2021/05/27 05:35:25;;;;;;;5.70;5.10;;;;;;;;;;5064324;28;20453;-84
2021/05/27 05:37:57;;;;;;;7.80;5.30;;;;;;;;;;5059576;28;20484;-83
2021/05/27 05:40:31;;;;;;;8.63;5.43;;;;;;;;;;5060883;28;20472;-85
2021/05/27 05:43:13;;;;;;;6.07;5.50;;;;;;;;;;5062922;28;20480;-85
2021/05/27 05:45:46;;;;;;;7.13;5.40;;;;;;;;;;5068534;28;20455;-84
2021/05/27 05:48:19;;;;;;;8.83;5.50;;;;;;;;;;5053482;28;20453;-83
2021/05/27 05:50:56;;;;;;;7.57;4.80;;;;;;;;;;5059042;28;20448;-83
2021/05/27 05:53:38;;;;;;;7.60;5.87;;;;;;;;;;5064180;28;20476;-83
2021/05/27 05:56:10;;;;;;;5.83;5.10;;;;;;;;;;5061064;28;20456;-83
2021/05/27 05:58:49;;;;;;;6.87;5.40;;;;;;;;;;5062646;28;20487;-84
2021/05/27 06:01:21;;;;;;;7.53;5.53;;;;;;;;;;5064465;28;20927;-84
2021/05/27 06:03:55;;;;;;;5.97;5.37;;;;;;;;;;5074433;28;20479;-86
2021/05/27 06:06:28;;;;;;;7.50;5.47;;;;;;;;;;5077097;28;20434;-86
2021/05/27 06:09:00;;;;;;;5.20;4.80;;;;;;;;;;5070988;28;20456;-85
2021/05/27 06:11:34;;;;;;;5.60;5.20;;;;;;;;;;5076762;28;20442;-85
2021/05/27 06:14:08;;;;;;;5.37;4.97;;;;;;;;;;5073187;28;20456;-84
2021/05/27 06:16:40;;;;;;;6.90;5.77;;;;;;;;;;5062726;28;20465;-81
2021/05/27 06:19:12;;;;;;;4.53;4.13;;;;;;;;;;5061520;28;20971;-82
2021/05/27 06:21:46;;;;;;;4.50;3.87;;;;;;;;;;5058025;28;20449;-82
2021/05/27 06:24:18;;;;;;;4.77;4.40;;;;;;;;;;5063737;28;20491;-81
2021/05/27 06:26:51;;;;;;;4.87;3.33;;;;;;;;;;5060094;28;20459;-81
2021/05/27 06:29:23;;;;;;;4.87;4.47;;;;;;;;;;5053752;28;20453;-80
2021/05/27 06:31:55;;;;;;;12.57;5.40;;;;;;;;;;5055998;28;20464;-82
2021/05/27 06:34:28;;;;;;;5.33;4.40;;;;;;;;;;5057341;28;20481;-84
2021/05/27 06:37:01;;;;;;;4.97;4.57;;;;;;;;;;5084077;28;20477;-79
2021/05/27 06:39:34;;;;;;;5.53;4.57;;;;;;;;;;5046559;28;20900;-76
2021/05/27 06:42:06;;;;;;;4.77;4.37;;;;;;;;;;5051026;28;20933;-81
2021/05/27 06:44:39;;;;;;;5.47;4.40;;;;;;;;;;5046285;28;20473;-88
2021/05/27 06:47:13;;;;;;;5.30;4.53;;;;;;;;;;5048934;28;20450;-77
2021/05/27 06:49:46;;;;;;;4.90;4.50;;;;;;;;;;5052412;28;20476;-83
2021/05/27 06:52:19;;;;;;;4.97;4.57;;;;;;;;;;5057517;28;20666;-81
2021/05/27 06:54:57;;;;;;;4.57;4.17;;;;;;;;;;5054126;28;20192;-87
2021/05/27 06:57:30;;;;;;;4.17;3.53;;;;;;;;;;5054819;28;20530;-86
2021/05/27 07:00:02;;;;;;;5.17;3.53;;;;;;;;;;5057251;28;20544;-81
2021/05/27 07:02:34;;;;;;;5.80;3.70;;;;;;;;;;5055851;28;20942;-80
2021/05/27 07:05:07;;;;;;;3.87;3.57;;;;;;;;;;5059407;28;20250;-81
2021/05/27 07:07:41;;;;;;;5.50;3.40;;;;;;;;;;5058839;28;20548;-81
2021/05/27 07:10:14;;;;;;;4.63;3.40;;;;;;;;;;5057264;28;20442;-81
2021/05/27 07:12:53;;;;;;;5.30;3.93;;;;;;;;;;5060330;28;20959;-82
2021/05/27 07:15:27;;;;;;;3.80;3.43;;;;;;;;;;5054140;28;22275;-82
2021/05/27 07:17:59;;;;;;;3.23;2.93;;;;;;;;;;5058584;28;20471;-80
2021/05/27 07:20:32;;;;;;;3.50;3.20;;;;;;;;;;5056040;28;20996;-86
2021/05/27 07:23:06;;;;;;;8.03;3.67;;;;;;;;;;5057788;28;20437;-83
2021/05/27 07:25:43;;;;;;;3.83;3.45;;;;;;;;;;5058132;28;20448;-85
2021/05/27 07:28:15;;;;;;;3.47;3.20;;;;;;;;;;5057039;28;20297;-80
2021/05/27 07:30:48;;;;;;;3.87;3.30;;;;;;;;;;5059516;28;20525;-84
2021/05/27 07:33:20;;;;;;;5.53;3.67;;;;;;;;;;5066181;28;20465;-82
2021/05/27 07:36:04;;;;;;;3.53;3.23;;;;;;;;;;5061830;28;20517;-84
2021/05/27 07:38:42;;;;;;;4.97;3.73;;;;;;;;;;5055790;28;20544;-85
2021/05/27 07:41:14;;;;;;;12.83;3.80;;;;;;;;;;5065518;28;20457;-83
2021/05/27 07:43:47;;;;;;;2.80;2.60;;;;;;;;;;5073792;28;20441;-88
2021/05/27 07:46:20;;;;;;;3.37;3.07;;;;;;;;;;5071674;28;20456;-91
2021/05/27 07:48:54;;;;;;;3.17;2.87;;;;;;;;;;5073849;28;20487;-83
2021/05/27 07:51:27;;;;;;;4.83;3.20;;;;;;;;;;5066053;28;20448;-82
2021/05/27 07:54:07;;;;;;;4.63;2.90;;;;;;;;;;5062487;28;20477;-85
2021/05/27 07:56:53;;;;;;;2.43;2.23;;;;;;;;;;5057985;28;20505;-86
2021/05/27 07:59:25;;;;;;;3.13;2.80;;;;;;;;;;5057073;28;20453;-79
2021/05/27 08:01:58;;;;;;;4.43;3.00;;;;;;;;;;5061188;28;20438;-83
2021/05/27 08:04:31;;;;;;;3.53;2.60;;;;;;;;;;5056196;28;20461;-90
2021/05/27 08:07:00;;;;;;;2.57;2.37;;;;;;;;;;5059862;28;20506;-85
2021/05/27 08:09:34;;;;;;;3.70;2.93;;;;;;;;;;5063722;28;20458;-83
2021/05/27 08:15:09;;;;;;;4.77;2.97;;;;;;;;;;5054159;28;20482;-85
2021/05/27 08:17:47;;;;;;;3.40;3.10;;;;;;;;;;5053208;28;20476;-80
2021/05/27 08:20:19;;;;;;;2.90;2.70;;;;;;;;;;5054446;28;20492;-85
2021/05/27 08:23:00;;;;;;;3.57;3.27;;;;;;;;;;5049410;28;20450;-85
2021/05/27 08:25:38;;;;;;;3.20;2.90;;;;;;;;;;5054444;28;21353;-84
2021/05/27 08:28:10;;;;;;;4.03;2.53;;;;;;;;;;5049392;28;20199;-84
2021/05/27 08:33:26;;;;;;;4.47;3.27;;;;;;;;;;5052058;28;21022;-84
2021/05/27 08:35:58;;;;;;;5.20;2.77;;;;;;;;;;5046208;28;20451;-85
2021/05/27 08:38:31;;;;;;;3.03;2.83;;;;;;;;;;5044679;28;20472;-85
2021/05/27 08:41:04;;;;;;;3.20;3.00;;;;;;;;;;5049417;28;20455;-84
2021/05/27 08:43:38;;;;;;;2.90;2.70;;;;;;;;;;5052463;28;20909;-84
2021/05/27 08:46:15;;;;;;;2.92;2.72;;;16.30;53.90;;;;;;5050440;28;20443;-83
2021/05/27 08:48:50;;;;;;;3.10;2.90;;;16.20;54.20;;;;;;5053776;28;20201;-83
2021/05/27 08:51:25;;;;;;;4.20;3.03;;;16.50;54.20;;;;;;5074230;28;20460;-82
2021/05/27 08:54:00;;;;;;;3.83;3.10;;;16.30;54.20;;;;;;5057044;28;20459;-81
2021/05/27 08:56:36;;;;;;;4.37;2.87;;;15.70;54.60;;;;;;5059646;28;20443;-83
2021/05/27 08:59:11;;;;;;;3.83;3.00;;;15.00;54.60;;;;;;5057207;28;20445;-82
2021/05/27 09:02:10;;;;;;;3.67;3.37;;;14.80;54.80;;;;;;5054457;28;20559;-85
2021/05/27 09:04:46;;;;;;;4.83;3.30;;;14.40;55.70;;;;;;5053429;28;20446;-83
2021/05/27 09:07:21;;;;;;;4.43;3.00;;;14.40;55.70;;;;;;5049960;28;20447;-84
2021/05/27 09:10:05;;;;;;;4.20;3.23;;;14.50;55.90;;;;;;5053657;28;20459;-84
2021/05/27 09:12:41;;;;;;;3.83;2.77;;;14.40;55.60;;;;;;5050050;28;20434;-84
2021/05/27 09:15:29;;;;;;;3.10;2.90;;;14.20;55.90;;;;;;5061418;28;20452;-83
2021/05/27 09:18:03;;;;;;;4.13;3.10;;;13.90;55.90;;;;;;5055364;28;20475;-84
2021/05/27 09:20:39;;;;;;;3.38;3.05;;;13.70;56.40;;;;;;5053866;28;20505;-85
2021/05/27 09:23:16;;;;;;;3.20;3.00;;;13.70;56.80;;;;;;5052396;28;20200;-85
2021/05/27 09:25:53;;;;;;;4.27;3.10;;;14.20;56.20;;;;;;5047752;28;20448;-88
2021/05/27 09:28:39;;;;;;;3.23;2.93;;;14.10;55.50;;;;;;5055359;28;20492;-89
2021/05/27 09:31:24;;;;;;;6.40;3.20;;;14.20;55.70;;;;;;5049569;28;20503;-89
2021/05/27 09:34:12;;;;;;;5.65;3.30;;;14.40;55.50;;;;;;5052070;28;20443;-86
2021/05/27 09:37:05;;;;;;;4.90;3.30;;;13.70;55.60;;;;;;5051000;28;20221;-86
2021/05/27 09:39:49;;;;;;;5.27;3.17;;;13.40;56.70;;;;;;5054047;28;20524;-87
2021/05/27 09:42:24;;;;;;;3.30;3.00;;;13.20;56.90;;;;;;5065386;28;20447;-87
2021/05/27 09:45:16;;;;;;;4.13;3.50;;;13.50;56.60;;;;;;5064715;28;20448;-83
2021/05/27 09:47:52;;;;;;;4.50;3.70;;;13.70;56.30;;;;;;5070284;28;20205;-87
2021/05/27 10:02:29;;;;;;;4.03;3.10;;;14.50;56.00;;;;;;5058256;28;20444;-85
2021/05/27 10:05:13;;;;;;;3.50;2.83;;;14.70;55.30;;;;;;5086815;28;20239;-82
2021/05/27 10:07:55;;;;;;;2.30;2.10;;;15.00;55.30;;;;;;5056209;28;20621;-86
2021/05/27 10:10:40;;;;;;;3.00;2.70;;;15.10;55.00;;;;;;5061220;28;20453;-84
2021/05/27 10:13:24;;;;;;;3.07;2.30;;;14.80;54.80;;;;;;5064265;28;20450;-84
2021/05/27 10:15:59;;;;;;;3.45;2.40;;;14.40;55.10;;;;;;5059806;28;20542;-86
2021/05/27 10:21:35;;;;;;;4.70;3.10;;;13.70;55.30;;;;;;5086778;28;20200;-85
2021/05/27 10:27:14;;;;;;;5.00;2.80;;;13.80;55.50;;;;;;5061869;28;20991;-86
2021/05/27 10:29:58;;;;;;;3.70;2.77;;;13.80;55.20;;;;;;5058626;28;20505;-87
2021/05/27 10:32:59;;;;;;;3.50;3.20;;;14.20;55.50;;;;;;5049914;28;20451;-86
2021/05/27 10:35:54;;;;;;;3.35;3.05;;;15.00;54.90;;;;;;5047450;28;20456;-81
2021/05/27 10:38:56;;;;;;;3.10;2.80;;;14.80;54.40;;;;;;5053076;28;20530;-83
2021/05/27 10:41:58;;;;;;;3.87;2.90;;;15.00;54.60;;;;;;5057654;28;20528;-80
2021/05/27 10:44:33;;;;;;;2.87;2.60;;;15.00;54.30;;;;;;5054923;28;20459;-81
2021/05/27 10:47:24;;;;;;;3.70;2.80;;;15.30;54.50;;;;;;5053398;28;20445;-81
2021/05/27 10:50:00;;;;;;;3.67;2.67;;;15.70;54.00;;;;;;5053703;28;20547;-83
2021/05/27 10:52:46;;;;;;;3.93;3.30;;;15.10;53.80;;;;;;5081488;28;20469;-86
2021/05/27 10:56:00;;;;;;;3.63;3.33;;;15.00;54.40;;;;;;5061650;28;20537;-78
2021/05/27 10:58:53;;;;;;;6.30;3.40;;;;;;;;;;5059046;28;20521;-82
2021/05/27 11:01:52;;;;;;;4.13;2.83;;;;;;;;;;5057445;28;20459;-79
2021/05/27 11:04:39;;;;;;;6.67;3.30;;;15.70;53.50;;;;;;5059254;28;20460;-82
2021/05/27 11:07:28;;;;;;;4.63;3.40;;;15.50;54.10;;;;;;5056507;28;20456;-84
2021/05/27 11:10:04;;;;;;;4.13;3.40;;;16.00;54.40;;;;;;5052775;28;20450;-86
2021/05/27 11:13:05;;;;;;;4.60;3.40;;;16.60;54.50;;;;;;5059635;28;20583;-80
2021/05/27 11:16:04;;;;;;;3.87;3.00;;;16.90;53.60;;;;;;5052765;28;21154;-83
2021/05/27 11:18:42;;;;;;;5.77;3.30;;;17.60;53.20;;;;;;5055719;28;20497;-85
2021/05/27 11:21:45;;;;;;;3.50;3.20;;;17.40;53.00;;;;;;5059429;28;20564;-85
2021/05/27 11:27:41;;;;;;;3.03;2.83;;;17.40;52.90;;;;;;5113829;27;20520;-84
2021/05/27 11:30:24;;;;;;;3.33;2.47;;;17.00;52.70;;;;;;5089527;28;20463;-84
2021/05/27 11:33:02;;;;;;;3.93;3.10;;;17.60;52.60;;;;;;5094989;28;20454;-86
2021/05/27 11:35:48;;;;;;;3.47;2.97;;;17.20;52.50;;;;;;5093603;28;20530;-87
2021/05/27 11:38:26;;;;;;;5.00;2.90;;;16.70;52.50;;;;;;5093135;28;20461;-87
2021/05/27 11:40:58;;;;;;;3.70;3.07;;;16.10;53.40;;;;;;5080656;28;20468;-82
2021/05/27 11:43:39;;;;;;;4.43;4.03;;;16.50;53.30;;;;;;5074125;28;20953;-83
2021/05/27 11:46:19;;;;;;;4.80;2.97;;;16.50;53.30;;;;;;5070371;28;20705;-85
2021/05/27 11:49:00;;;;;;;4.03;3.20;;;16.70;52.90;;;;;;5066325;28;20442;-85
2021/05/27 11:58:45;;;;;;;3.83;3.53;;;17.20;52.60;;;;;;5070946;28;20680;-86
2021/05/27 12:08:51;;;;;;;3.50;2.90;;;15.30;52.30;;;;;;5084050;28;20517;-79
2021/05/27 12:11:39;;;;;;;4.43;3.40;;;15.70;53.20;;;;;;5081601;28;20446;-82
2021/05/27 12:14:15;;;;;;;3.93;3.60;;;16.50;53.10;;;;;;5096570;28;20463;-80
2021/05/27 12:16:53;;;;;;;3.30;3.00;;;16.60;53.20;;;;;;5075839;28;20445;-78
2021/05/27 12:19:29;;;;;;;5.03;3.80;;;16.00;53.40;;;;;;5068804;28;20447;-87
2021/05/27 12:22:18;;;;;;;3.93;3.63;;;15.50;53.20;;;;;;5086776;28;20188;-85
2021/05/27 12:25:11;;;;;;;4.70;3.57;;;15.50;53.90;;;;;;5077267;28;20646;-83
2021/05/27 12:27:55;;;;;;;4.43;4.03;;;15.10;54.00;;;;;;5074125;28;20859;-85
2021/05/27 12:30:41;;;;;;;3.53;3.30;;;14.80;54.40;;;;;;5071918;28;20458;-86
2021/05/27 12:36:25;;;;;;;5.57;4.50;;;14.50;54.30;;;;;;5072813;28;20456;-86
2021/05/27 12:39:03;;;;;;;5.17;4.70;;;;;;;;;;5059744;28;20467;-84
2021/05/27 12:41:35;;;;;;;4.77;4.40;;;;;;;;;;5061567;28;21079;-85
2021/05/27 12:44:14;;;;;;;4.03;3.73;;;;;;;;;;5063333;28;20526;-86
2021/05/27 12:46:54;;;;;;;3.87;3.57;;;;;;;;;;5058587;28;20472;-85
2021/05/27 12:49:33;;;;;;;3.40;3.00;;;;;;;;;;5065495;28;20449;-88
2021/05/27 12:52:06;;;;;;;4.07;3.67;;;;;;;;;;5065610;28;20455;-83
2021/05/27 12:54:39;;;;;;;3.90;3.60;;;;;;;;;;5069249;28;20203;-81
2021/05/27 12:57:28;;;;;;;4.57;3.83;;;14.30;54.80;;;;;;5065930;28;20450;-85
2021/05/27 13:00:05;;;;;;;3.90;3.63;;;14.40;55.40;;;;;;5061386;28;20460;-86
2021/05/27 13:03:09;;;;;;;3.73;3.33;;;14.70;54.90;;;;;;5060460;28;20449;-86
2021/05/27 13:05:44;;;;;;;4.83;3.77;;;14.80;55.10;;;;;;5056417;28;20461;-83
2021/05/27 13:08:44;;;;;;;4.10;3.80;;;15.20;54.80;;;;;;5063950;28;20481;-85
2021/05/27 13:11:44;;;;;;;3.63;3.33;;;16.20;54.90;;;;;;5071081;28;20537;-87
2021/05/27 13:15:06;;;;;;;3.87;3.20;;;16.20;52.80;;;;;;5068401;28;20457;-86
2021/05/27 13:21:08;;;;;;;3.97;3.00;;;16.60;53.60;;;;;;5062702;28;20425;-88
2021/05/27 13:23:45;;;;;;;2.80;2.37;;;17.80;52.70;;;;;;5062923;28;20444;-85
2021/05/27 13:26:23;;;;;;;4.00;2.40;;;17.50;52.20;;;;;;5069622;28;20484;-85
2021/05/27 13:32:00;;;;;;;2.40;2.20;;;16.50;52.60;;;;;;5064968;28;20496;-86
2021/05/27 13:34:54;;;;;;;2.83;2.50;;;16.30;52.30;;;;;;5058326;28;20461;-82
2021/05/27 13:37:50;;;;;;;4.57;2.75;;;16.50;51.80;;;;;;5056999;28;20794;-84
2021/05/27 13:40:28;;;;;;;3.40;3.10;;;16.30;52.30;;;;;;5067879;28;20464;-85
2021/05/27 13:43:08;;;;;;;3.30;3.07;;;16.20;53.50;;;;;;5060391;28;20249;-84
2021/05/27 13:45:43;;;;;;;2.90;2.70;;;17.30;52.80;;;;;;5070970;28;20454;-86
2021/05/27 13:48:35;;;;;;;3.30;3.00;;;17.40;52.60;;;;;;5060077;28;20237;-80
2021/05/27 13:51:12;;;;;;;3.13;2.80;;;17.50;52.40;;;;;;5058015;28;20797;-81
2021/05/27 13:53:47;;;;;;;3.77;3.23;;;16.60;52.70;;;;;;5049014;28;20478;-80
2021/05/27 13:56:23;;;;;;;3.23;2.63;;;16.20;52.70;;;;;;5057413;28;20547;-80
2021/05/27 13:58:58;;;;;;;4.10;2.83;;;16.00;53.00;;;;;;5061576;28;20461;-81
2021/05/27 14:01:33;;;;;;;4.03;3.10;;;16.00;53.60;;;;;;5057146;28;20527;-80
2021/05/27 14:04:10;;;;;;;7.83;3.43;;;16.10;55.80;;;;;;5058979;28;20465;-80
2021/05/27 14:06:46;;;;;;;3.00;2.80;;;16.00;57.20;;;;;;5062662;28;20474;-80
2021/05/27 14:09:21;;;;;;;3.90;3.60;;;16.10;56.10;;;;;;5054946;28;20464;-80
2021/05/27 14:11:56;;;;;;;3.17;2.67;;;15.70;57.40;;;;;;5070710;28;20982;-83
2021/05/27 14:14:29;;;;;;;2.90;2.70;;;15.20;55.40;;;;;;5045624;28;20459;-82
2021/05/27 14:17:04;;;;;;;3.03;2.83;;;15.00;55.50;;;;;;5047631;28;20451;-80
2021/05/27 14:19:39;;;;;;;2.83;2.50;;;15.40;55.80;;;;;;5043833;28;20448;-80
2021/05/27 14:22:16;;;;;;;3.57;2.60;;;15.60;55.70;;;;;;5055429;28;20556;-82
2021/05/27 14:24:51;;;;;;;4.47;3.20;;;15.80;55.10;;;;;;5049438;28;20456;-80
2021/05/27 14:27:26;;;;;;;2.93;2.63;;;16.10;55.00;;;;;;5056162;28;20470;-81
2021/05/27 14:30:01;;;;;;;3.20;3.00;;;16.50;55.00;;;;;;5062113;28;20472;-81
2021/05/27 14:32:36;;;;;;;2.77;2.57;;;16.50;54.20;;;;;;5061910;28;20821;-81
2021/05/27 14:35:12;;;;;;;2.70;2.50;;;16.40;54.00;;;;;;5056528;28;20638;-81
2021/05/27 14:37:48;;;;;;;3.13;2.50;;;16.20;54.10;;;;;;5051630;28;20493;-81
2021/05/27 14:40:23;;;;;;;2.80;2.47;;;16.20;54.40;;;;;;5050778;28;20865;-80
2021/05/27 14:42:58;;;;;;;4.77;2.80;;;16.80;55.00;;;;;;5066914;28;20488;-80
2021/05/27 14:45:31;;;;;;;4.13;3.40;;;16.00;54.00;;;;;;5047474;28;20487;-80
2021/05/27 14:48:04;;;;;;;3.63;3.30;;;;;;;;;;5059731;28;20452;-81
2021/05/27 14:50:40;;;;;;;6.00;2.83;;;;;;;;;;5046850;28;20458;-81
2021/05/27 14:53:17;;;;;;;4.13;2.87;;;15.90;53.70;;;;;;5062840;28;20460;-81
2021/05/27 14:55:53;;;;;;;3.00;2.53;;;15.60;54.10;;;;;;5049413;28;20843;-80
2021/05/27 14:58:28;;;;;;;5.20;1.80;;;14.70;54.80;;;;;;5066589;28;20455;-81
2021/05/27 15:01:00;;;;;;;2.13;1.70;;;;;;;;;;5051031;28;20466;-80
2021/05/27 15:03:32;;;;;;;1.33;1.23;;;;;;;;;;5055846;28;20468;-80
2021/05/27 15:06:06;;;;;;;2.10;1.43;;;;;;;;;;5053476;28;20476;-80
2021/05/27 15:08:40;;;;;;;1.70;1.53;;;;;;;;;;5055686;28;20980;-79
2021/05/27 15:11:18;;;;;;;2.40;1.17;;;;;;;;;;5041192;28;20468;-82
2021/05/27 15:13:50;;;;;;;1.80;1.30;;;;;;;;;;5044015;28;20507;-82
2021/05/27 15:16:23;;;;;;;1.30;1.20;;;;;;;;;;5054981;28;20302;-81
2021/05/27 15:18:56;;;;;;;1.35;1.20;;;;;;;;;;5058402;28;20448;-80
2021/05/27 15:21:28;;;;;;;1.60;1.50;;;;;;;;;;5046322;28;20195;-81
2021/05/27 15:24:02;;;;;;;2.10;1.80;;;;;;;;;;5051710;28;20483;-81
2021/05/27 15:26:34;;;;;;;1.90;1.47;;;;;;;;;;5050420;28;20483;-82
2021/05/27 15:29:07;;;;;;;1.40;1.30;;;;;;;;;;5069059;28;20458;-81
2021/05/27 15:31:40;;;;;;;1.50;1.30;;;;;;;;;;5064167;28;20452;-78